sensor_id;sensor_type;location;lat;lon;timestamp;P1;durP1;ratioP1;P2;durP2;ratioP2
29246;SDS011;16272;48.188;9.964;2023-04-24T00:02:20;4.97;;;1.10;;
29246;SDS011;16272;48.188;9.964;2023-04-24T00:04:45;6.97;;;1.40;;
29246;SDS011;16272;48.188;9.964;2023-04-24T00:07:11;5.40;;;1.40;;
29246;SDS011;16272;48.188;9.964;2023-04-24T00:09:38;4.22;;;1.10;;
29246;SDS011;16272;48.188;9.964;2023-04-24T00:12:03;4.73;;;1.07;;
29246;SDS011;16272;48.188;9.964;2023-04-24T00:14:29;5.47;;;1.00;;
29246;SDS011;16272;48.188;9.964;2023-04-24T00:16:57;6.13;;;1.20;;
29246;SDS011;16272;48.188;9.964;2023-04-24T00:19:23;5.50;;;1.50;;
29246;SDS011;16272;48.188;9.964;2023-04-24T00:21:48;5.13;;;1.13;;
29246;SDS011;16272;48.188;9.964;2023-04-24T00:24:17;4.28;;;1.13;;
29246;SDS011;16272;48.188;9.964;2023-04-24T00:26:43;6.57;;;1.40;;
29246;SDS011;16272;48.188;9.964;2023-04-24T00:29:09;5.40;;;1.30;;
29246;SDS011;16272;48.188;9.964;2023-04-24T00:31:34;5.90;;;1.07;;
29246;SDS011;16272;48.188;9.964;2023-04-24T00:34:03;4.95;;;1.30;;
29246;SDS011;16272;48.188;9.964;2023-04-24T00:36:29;5.37;;;1.40;;
29246;SDS011;16272;48.188;9.964;2023-04-24T00:38:55;6.60;;;1.40;;
29246;SDS011;16272;48.188;9.964;2023-04-24T00:41:21;5.20;;;1.20;;
29246;SDS011;16272;48.188;9.964;2023-04-24T00:43:47;5.30;;;1.47;;
29246;SDS011;16272;48.188;9.964;2023-04-24T00:46:12;5.63;;;1.50;;
29246;SDS011;16272;48.188;9.964;2023-04-24T00:48:39;4.60;;;1.20;;
29246;SDS011;16272;48.188;9.964;2023-04-24T00:51:04;4.97;;;1.23;;
29246;SDS011;16272;48.188;9.964;2023-04-24T00:53:29;5.63;;;1.40;;
29246;SDS011;16272;48.188;9.964;2023-04-24T00:55:55;4.67;;;1.20;;
29246;SDS011;16272;48.188;9.964;2023-04-24T00:58:22;4.50;;;1.17;;
29246;SDS011;16272;48.188;9.964;2023-04-24T01:00:48;4.72;;;1.15;;
29246;SDS011;16272;48.188;9.964;2023-04-24T01:03:18;5.75;;;2.03;;
29246;SDS011;16272;48.188;9.964;2023-04-24T01:05:45;4.90;;;1.20;;
29246;SDS011;16272;48.188;9.964;2023-04-24T01:08:10;4.20;;;1.17;;
29246;SDS011;16272;48.188;9.964;2023-04-24T01:10:36;5.00;;;1.23;;
29246;SDS011;16272;48.188;9.964;2023-04-24T01:13:03;6.35;;;1.20;;
29246;SDS011;16272;48.188;9.964;2023-04-24T01:15:29;6.13;;;1.17;;
29246;SDS011;16272;48.188;9.964;2023-04-24T01:17:54;4.90;;;1.17;;
29246;SDS011;16272;48.188;9.964;2023-04-24T01:20:20;4.53;;;1.20;;
29246;SDS011;16272;48.188;9.964;2023-04-24T01:22:46;5.67;;;1.20;;
29246;SDS011;16272;48.188;9.964;2023-04-24T01:25:12;5.60;;;1.30;;
29246;SDS011;16272;48.188;9.964;2023-04-24T01:27:37;6.10;;;1.30;;
29246;SDS011;16272;48.188;9.964;2023-04-24T01:30:03;5.10;;;1.13;;
29246;SDS011;16272;48.188;9.964;2023-04-24T01:32:29;4.70;;;1.10;;
29246;SDS011;16272;48.188;9.964;2023-04-24T01:34:54;4.80;;;1.43;;
29246;SDS011;16272;48.188;9.964;2023-04-24T01:37:20;6.03;;;1.10;;
29246;SDS011;16272;48.188;9.964;2023-04-24T01:39:46;4.77;;;1.20;;
29246;SDS011;16272;48.188;9.964;2023-04-24T01:42:12;5.40;;;1.00;;
29246;SDS011;16272;48.188;9.964;2023-04-24T01:44:37;5.45;;;1.30;;
29246;SDS011;16272;48.188;9.964;2023-04-24T01:47:03;4.57;;;1.10;;
29246;SDS011;16272;48.188;9.964;2023-04-24T01:49:29;5.47;;;1.20;;
29246;SDS011;16272;48.188;9.964;2023-04-24T01:51:54;5.07;;;1.30;;
29246;SDS011;16272;48.188;9.964;2023-04-24T01:54:19;4.93;;;1.30;;
29246;SDS011;16272;48.188;9.964;2023-04-24T01:56:45;7.03;;;1.47;;
29246;SDS011;16272;48.188;9.964;2023-04-24T01:59:10;5.40;;;1.17;;
29246;SDS011;16272;48.188;9.964;2023-04-24T02:01:36;5.20;;;1.40;;
29246;SDS011;16272;48.188;9.964;2023-04-24T02:04:03;5.53;;;1.50;;
29246;SDS011;16272;48.188;9.964;2023-04-24T02:06:29;5.33;;;1.20;;
29246;SDS011;16272;48.188;9.964;2023-04-24T02:08:56;5.20;;;1.02;;
29246;SDS011;16272;48.188;9.964;2023-04-24T02:11:22;5.05;;;1.20;;
29246;SDS011;16272;48.188;9.964;2023-04-24T02:13:47;6.77;;;1.10;;
29246;SDS011;16272;48.188;9.964;2023-04-24T02:16:13;5.90;;;1.57;;
29246;SDS011;16272;48.188;9.964;2023-04-24T02:18:38;5.03;;;1.40;;
29246;SDS011;16272;48.188;9.964;2023-04-24T02:21:03;4.90;;;1.30;;
29246;SDS011;16272;48.188;9.964;2023-04-24T02:23:29;4.70;;;1.20;;
29246;SDS011;16272;48.188;9.964;2023-04-24T02:25:54;5.37;;;1.20;;
29246;SDS011;16272;48.188;9.964;2023-04-24T02:28:20;5.05;;;1.40;;
29246;SDS011;16272;48.188;9.964;2023-04-24T02:30:46;5.40;;;1.10;;
29246;SDS011;16272;48.188;9.964;2023-04-24T02:33:11;7.40;;;1.37;;
29246;SDS011;16272;48.188;9.964;2023-04-24T02:35:36;5.70;;;1.33;;
29246;SDS011;16272;48.188;9.964;2023-04-24T02:38:02;4.70;;;1.60;;
29246;SDS011;16272;48.188;9.964;2023-04-24T02:40:28;5.63;;;1.40;;
29246;SDS011;16272;48.188;9.964;2023-04-24T02:42:53;5.57;;;1.47;;
29246;SDS011;16272;48.188;9.964;2023-04-24T02:45:19;5.40;;;1.70;;
29246;SDS011;16272;48.188;9.964;2023-04-24T02:47:44;5.63;;;1.40;;
29246;SDS011;16272;48.188;9.964;2023-04-24T02:50:09;7.23;;;1.63;;
29246;SDS011;16272;48.188;9.964;2023-04-24T02:52:35;5.80;;;1.60;;
29246;SDS011;16272;48.188;9.964;2023-04-24T02:55:00;5.07;;;1.50;;
29246;SDS011;16272;48.188;9.964;2023-04-24T02:57:25;5.53;;;1.60;;
29246;SDS011;16272;48.188;9.964;2023-04-24T02:59:51;7.30;;;1.70;;
29246;SDS011;16272;48.188;9.964;2023-04-24T03:02:16;5.37;;;1.47;;
29246;SDS011;16272;48.188;9.964;2023-04-24T03:04:41;6.97;;;1.77;;
29246;SDS011;16272;48.188;9.964;2023-04-24T03:07:07;5.43;;;1.60;;
29246;SDS011;16272;48.188;9.964;2023-04-24T03:09:33;6.13;;;1.30;;
29246;SDS011;16272;48.188;9.964;2023-04-24T03:11:58;5.10;;;1.60;;
29246;SDS011;16272;48.188;9.964;2023-04-24T03:14:23;4.77;;;1.40;;
29246;SDS011;16272;48.188;9.964;2023-04-24T03:16:49;7.60;;;1.30;;
29246;SDS011;16272;48.188;9.964;2023-04-24T03:19:15;5.38;;;1.40;;
29246;SDS011;16272;48.188;9.964;2023-04-24T03:21:40;6.33;;;1.43;;
29246;SDS011;16272;48.188;9.964;2023-04-24T03:24:08;4.87;;;1.23;;
29246;SDS011;16272;48.188;9.964;2023-04-24T03:26:34;4.78;;;1.20;;
29246;SDS011;16272;48.188;9.964;2023-04-24T03:29:00;6.18;;;1.48;;
29246;SDS011;16272;48.188;9.964;2023-04-24T03:31:25;4.93;;;1.30;;
29246;SDS011;16272;48.188;9.964;2023-04-24T03:33:51;4.93;;;1.30;;
29246;SDS011;16272;48.188;9.964;2023-04-24T03:36:16;6.57;;;1.37;;
29246;SDS011;16272;48.188;9.964;2023-04-24T03:38:42;5.13;;;1.30;;
29246;SDS011;16272;48.188;9.964;2023-04-24T03:41:08;5.17;;;1.37;;
29246;SDS011;16272;48.188;9.964;2023-04-24T03:43:33;4.95;;;1.17;;
29246;SDS011;16272;48.188;9.964;2023-04-24T03:45:59;5.37;;;1.27;;
29246;SDS011;16272;48.188;9.964;2023-04-24T03:48:25;4.47;;;1.00;;
29246;SDS011;16272;48.188;9.964;2023-04-24T03:50:50;5.00;;;1.10;;
29246;SDS011;16272;48.188;9.964;2023-04-24T03:53:16;5.37;;;1.27;;
29246;SDS011;16272;48.188;9.964;2023-04-24T03:55:41;4.77;;;1.10;;
29246;SDS011;16272;48.188;9.964;2023-04-24T03:58:06;4.45;;;1.10;;
29246;SDS011;16272;48.188;9.964;2023-04-24T04:00:32;5.30;;;1.20;;
29246;SDS011;16272;48.188;9.964;2023-04-24T04:02:58;4.38;;;1.08;;
29246;SDS011;16272;48.188;9.964;2023-04-24T04:05:23;4.97;;;1.00;;
29246;SDS011;16272;48.188;9.964;2023-04-24T04:07:48;4.40;;;1.27;;
29246;SDS011;16272;48.188;9.964;2023-04-24T04:10:14;3.73;;;1.00;;
29246;SDS011;16272;48.188;9.964;2023-04-24T04:12:39;3.90;;;0.70;;
29246;SDS011;16272;48.188;9.964;2023-04-24T04:15:04;4.77;;;1.00;;
29246;SDS011;16272;48.188;9.964;2023-04-24T04:17:31;4.22;;;0.90;;
29246;SDS011;16272;48.188;9.964;2023-04-24T04:19:57;5.17;;;1.40;;
29246;SDS011;16272;48.188;9.964;2023-04-24T04:22:22;5.00;;;1.00;;
29246;SDS011;16272;48.188;9.964;2023-04-24T04:24:48;4.13;;;0.87;;
29246;SDS011;16272;48.188;9.964;2023-04-24T04:27:13;3.73;;;0.90;;
29246;SDS011;16272;48.188;9.964;2023-04-24T04:29:38;3.43;;;0.80;;
29246;SDS011;16272;48.188;9.964;2023-04-24T04:32:04;4.15;;;0.90;;
29246;SDS011;16272;48.188;9.964;2023-04-24T04:34:31;4.95;;;1.00;;
29246;SDS011;16272;48.188;9.964;2023-04-24T04:36:57;3.93;;;0.80;;
29246;SDS011;16272;48.188;9.964;2023-04-24T04:39:24;4.40;;;0.90;;
29246;SDS011;16272;48.188;9.964;2023-04-24T04:41:50;4.93;;;1.20;;
29246;SDS011;16272;48.188;9.964;2023-04-24T04:44:15;4.97;;;0.90;;
29246;SDS011;16272;48.188;9.964;2023-04-24T04:46:40;4.32;;;1.00;;
29246;SDS011;16272;48.188;9.964;2023-04-24T04:49:06;4.03;;;0.90;;
29246;SDS011;16272;48.188;9.964;2023-04-24T04:51:33;4.05;;;1.00;;
29246;SDS011;16272;48.188;9.964;2023-04-24T04:53:59;4.10;;;0.90;;
29246;SDS011;16272;48.188;9.964;2023-04-24T04:56:25;3.63;;;0.90;;
29246;SDS011;16272;48.188;9.964;2023-04-24T04:58:50;3.53;;;1.00;;
29246;SDS011;16272;48.188;9.964;2023-04-24T05:01:15;5.10;;;1.10;;
29246;SDS011;16272;48.188;9.964;2023-04-24T05:03:41;4.37;;;0.90;;
29246;SDS011;16272;48.188;9.964;2023-04-24T05:06:06;4.87;;;0.90;;
29246;SDS011;16272;48.188;9.964;2023-04-24T05:08:32;5.00;;;0.90;;
29246;SDS011;16272;48.188;9.964;2023-04-24T05:10:57;3.10;;;0.70;;
29246;SDS011;16272;48.188;9.964;2023-04-24T05:13:22;4.30;;;0.90;;
29246;SDS011;16272;48.188;9.964;2023-04-24T05:15:47;4.13;;;0.80;;
29246;SDS011;16272;48.188;9.964;2023-04-24T05:18:13;4.33;;;0.80;;
29246;SDS011;16272;48.188;9.964;2023-04-24T05:20:38;4.70;;;1.20;;
29246;SDS011;16272;48.188;9.964;2023-04-24T05:23:04;3.87;;;0.97;;
29246;SDS011;16272;48.188;9.964;2023-04-24T05:25:29;3.77;;;0.80;;
29246;SDS011;16272;48.188;9.964;2023-04-24T05:27:55;3.90;;;0.82;;
29246;SDS011;16272;48.188;9.964;2023-04-24T05:30:20;3.67;;;0.93;;
29246;SDS011;16272;48.188;9.964;2023-04-24T05:32:46;3.63;;;0.80;;
29246;SDS011;16272;48.188;9.964;2023-04-24T05:35:11;4.10;;;0.80;;
29246;SDS011;16272;48.188;9.964;2023-04-24T05:37:36;3.47;;;0.70;;
29246;SDS011;16272;48.188;9.964;2023-04-24T05:40:02;4.30;;;0.97;;
29246;SDS011;16272;48.188;9.964;2023-04-24T05:42:30;3.47;;;0.80;;
29246;SDS011;16272;48.188;9.964;2023-04-24T05:44:56;4.75;;;0.80;;
29246;SDS011;16272;48.188;9.964;2023-04-24T05:47:21;3.17;;;0.60;;
29246;SDS011;16272;48.188;9.964;2023-04-24T05:49:47;3.83;;;1.00;;
29246;SDS011;16272;48.188;9.964;2023-04-24T05:52:12;4.30;;;1.10;;
29246;SDS011;16272;48.188;9.964;2023-04-24T05:54:37;4.20;;;0.80;;
29246;SDS011;16272;48.188;9.964;2023-04-24T05:57:03;3.93;;;0.77;;
29246;SDS011;16272;48.188;9.964;2023-04-24T05:59:32;2.83;;;0.70;;
29246;SDS011;16272;48.188;9.964;2023-04-24T06:01:58;4.03;;;0.90;;
29246;SDS011;16272;48.188;9.964;2023-04-24T06:04:23;3.77;;;0.77;;
29246;SDS011;16272;48.188;9.964;2023-04-24T06:06:48;3.17;;;0.60;;
29246;SDS011;16272;48.188;9.964;2023-04-24T06:09:16;3.47;;;0.70;;
29246;SDS011;16272;48.188;9.964;2023-04-24T06:11:42;2.97;;;0.60;;
29246;SDS011;16272;48.188;9.964;2023-04-24T06:14:08;3.30;;;0.90;;
29246;SDS011;16272;48.188;9.964;2023-04-24T06:16:33;3.23;;;0.73;;
29246;SDS011;16272;48.188;9.964;2023-04-24T06:18:58;3.87;;;0.77;;
29246;SDS011;16272;48.188;9.964;2023-04-24T06:21:24;5.87;;;1.50;;
29246;SDS011;16272;48.188;9.964;2023-04-24T06:23:49;6.47;;;1.40;;
29246;SDS011;16272;48.188;9.964;2023-04-24T06:26:15;5.50;;;1.43;;
29246;SDS011;16272;48.188;9.964;2023-04-24T06:28:40;5.73;;;1.30;;
29246;SDS011;16272;48.188;9.964;2023-04-24T06:31:05;6.00;;;1.10;;
29246;SDS011;16272;48.188;9.964;2023-04-24T06:33:31;5.53;;;1.60;;
29246;SDS011;16272;48.188;9.964;2023-04-24T06:35:56;4.83;;;1.23;;
29246;SDS011;16272;48.188;9.964;2023-04-24T06:38:21;5.57;;;1.50;;
29246;SDS011;16272;48.188;9.964;2023-04-24T06:40:47;6.13;;;1.83;;
29246;SDS011;16272;48.188;9.964;2023-04-24T06:43:12;5.80;;;1.70;;
29246;SDS011;16272;48.188;9.964;2023-04-24T06:45:38;6.03;;;1.90;;
29246;SDS011;16272;48.188;9.964;2023-04-24T06:48:04;6.22;;;2.03;;
29246;SDS011;16272;48.188;9.964;2023-04-24T06:50:30;5.33;;;1.60;;
29246;SDS011;16272;48.188;9.964;2023-04-24T06:52:55;8.50;;;2.50;;
29246;SDS011;16272;48.188;9.964;2023-04-24T06:55:21;7.30;;;2.20;;
29246;SDS011;16272;48.188;9.964;2023-04-24T06:57:46;6.10;;;1.80;;
29246;SDS011;16272;48.188;9.964;2023-04-24T07:00:11;6.53;;;1.80;;
29246;SDS011;16272;48.188;9.964;2023-04-24T07:02:37;6.70;;;1.83;;
29246;SDS011;16272;48.188;9.964;2023-04-24T07:05:03;6.90;;;2.23;;
29246;SDS011;16272;48.188;9.964;2023-04-24T07:07:29;6.40;;;2.23;;
29246;SDS011;16272;48.188;9.964;2023-04-24T07:09:56;6.97;;;2.22;;
29246;SDS011;16272;48.188;9.964;2023-04-24T07:12:22;6.57;;;1.92;;
29246;SDS011;16272;48.188;9.964;2023-04-24T07:14:47;6.57;;;1.83;;
29246;SDS011;16272;48.188;9.964;2023-04-24T07:17:13;5.50;;;1.80;;
29246;SDS011;16272;48.188;9.964;2023-04-24T07:19:39;6.78;;;1.85;;
29246;SDS011;16272;48.188;9.964;2023-04-24T07:22:04;5.90;;;1.80;;
29246;SDS011;16272;48.188;9.964;2023-04-24T07:24:30;6.23;;;1.70;;
29246;SDS011;16272;48.188;9.964;2023-04-24T07:26:57;6.03;;;1.60;;
29246;SDS011;16272;48.188;9.964;2023-04-24T07:29:23;5.60;;;1.60;;
29246;SDS011;16272;48.188;9.964;2023-04-24T07:31:48;5.73;;;1.70;;
29246;SDS011;16272;48.188;9.964;2023-04-24T07:34:13;6.10;;;2.00;;
29246;SDS011;16272;48.188;9.964;2023-04-24T07:36:38;9.23;;;1.80;;
29246;SDS011;16272;48.188;9.964;2023-04-24T07:39:05;6.55;;;1.70;;
29246;SDS011;16272;48.188;9.964;2023-04-24T07:41:30;5.90;;;1.70;;
29246;SDS011;16272;48.188;9.964;2023-04-24T07:43:56;6.10;;;1.70;;
29246;SDS011;16272;48.188;9.964;2023-04-24T07:46:21;6.63;;;1.97;;
29246;SDS011;16272;48.188;9.964;2023-04-24T07:48:48;6.20;;;1.83;;
29246;SDS011;16272;48.188;9.964;2023-04-24T07:51:14;5.67;;;1.70;;
29246;SDS011;16272;48.188;9.964;2023-04-24T07:53:39;6.45;;;1.90;;
29246;SDS011;16272;48.188;9.964;2023-04-24T07:56:05;6.60;;;2.30;;
29246;SDS011;16272;48.188;9.964;2023-04-24T07:58:30;6.90;;;2.30;;
29246;SDS011;16272;48.188;9.964;2023-04-24T08:00:56;7.03;;;1.87;;
29246;SDS011;16272;48.188;9.964;2023-04-24T08:03:21;7.47;;;1.80;;
29246;SDS011;16272;48.188;9.964;2023-04-24T08:05:46;7.77;;;1.90;;
29246;SDS011;16272;48.188;9.964;2023-04-24T08:08:12;6.03;;;1.87;;
29246;SDS011;16272;48.188;9.964;2023-04-24T08:10:38;5.57;;;1.70;;
29246;SDS011;16272;48.188;9.964;2023-04-24T08:13:04;6.70;;;2.15;;
29246;SDS011;16272;48.188;9.964;2023-04-24T08:15:29;6.27;;;1.80;;
29246;SDS011;16272;48.188;9.964;2023-04-24T08:17:55;6.30;;;1.83;;
29246;SDS011;16272;48.188;9.964;2023-04-24T08:20:20;7.73;;;1.70;;
29246;SDS011;16272;48.188;9.964;2023-04-24T08:22:45;5.93;;;2.10;;
29246;SDS011;16272;48.188;9.964;2023-04-24T08:25:12;5.97;;;1.83;;
29246;SDS011;16272;48.188;9.964;2023-04-24T08:27:37;5.72;;;1.80;;
29246;SDS011;16272;48.188;9.964;2023-04-24T08:30:04;5.20;;;1.40;;
29246;SDS011;16272;48.188;9.964;2023-04-24T08:32:30;6.32;;;1.60;;
29246;SDS011;16272;48.188;9.964;2023-04-24T08:34:55;6.40;;;1.93;;
29246;SDS011;16272;48.188;9.964;2023-04-24T08:37:25;5.28;;;1.38;;
29246;SDS011;16272;48.188;9.964;2023-04-24T08:39:51;4.50;;;1.10;;
29246;SDS011;16272;48.188;9.964;2023-04-24T08:42:19;4.90;;;1.20;;
29246;SDS011;16272;48.188;9.964;2023-04-24T08:44:46;4.30;;;1.10;;
29246;SDS011;16272;48.188;9.964;2023-04-24T08:47:13;4.32;;;1.42;;
29246;SDS011;16272;48.188;9.964;2023-04-24T08:49:40;4.13;;;1.23;;
29246;SDS011;16272;48.188;9.964;2023-04-24T08:52:05;5.30;;;1.10;;
29246;SDS011;16272;48.188;9.964;2023-04-24T08:54:31;4.23;;;1.17;;
29246;SDS011;16272;48.188;9.964;2023-04-24T08:57:00;4.75;;;1.33;;
29246;SDS011;16272;48.188;9.964;2023-04-24T08:59:28;5.88;;;1.40;;
29246;SDS011;16272;48.188;9.964;2023-04-24T09:01:54;4.23;;;1.10;;
29246;SDS011;16272;48.188;9.964;2023-04-24T09:04:21;5.72;;;1.33;;
29246;SDS011;16272;48.188;9.964;2023-04-24T09:06:48;5.53;;;1.52;;
29246;SDS011;16272;48.188;9.964;2023-04-24T09:09:14;5.20;;;1.40;;
29246;SDS011;16272;48.188;9.964;2023-04-24T09:11:42;5.00;;;1.50;;
29246;SDS011;16272;48.188;9.964;2023-04-24T09:14:08;4.80;;;1.50;;
29246;SDS011;16272;48.188;9.964;2023-04-24T09:16:35;4.85;;;1.33;;
29246;SDS011;16272;48.188;9.964;2023-04-24T09:19:00;4.63;;;1.30;;
29246;SDS011;16272;48.188;9.964;2023-04-24T09:21:30;4.60;;;1.03;;
29246;SDS011;16272;48.188;9.964;2023-04-24T09:23:58;4.80;;;1.50;;
29246;SDS011;16272;48.188;9.964;2023-04-24T09:26:39;4.97;;;1.30;;
29246;SDS011;16272;48.188;9.964;2023-04-24T09:29:05;5.30;;;1.30;;
29246;SDS011;16272;48.188;9.964;2023-04-24T09:31:30;4.63;;;1.10;;
29246;SDS011;16272;48.188;9.964;2023-04-24T09:33:59;5.10;;;1.20;;
29246;SDS011;16272;48.188;9.964;2023-04-24T09:36:32;5.40;;;1.67;;
29246;SDS011;16272;48.188;9.964;2023-04-24T09:39:00;5.53;;;1.50;;
29246;SDS011;16272;48.188;9.964;2023-04-24T09:41:26;5.20;;;1.20;;
29246;SDS011;16272;48.188;9.964;2023-04-24T09:43:53;5.50;;;1.40;;
29246;SDS011;16272;48.188;9.964;2023-04-24T09:46:20;5.10;;;1.20;;
29246;SDS011;16272;48.188;9.964;2023-04-24T09:48:47;6.75;;;1.52;;
29246;SDS011;16272;48.188;9.964;2023-04-24T09:51:13;4.87;;;1.60;;
29246;SDS011;16272;48.188;9.964;2023-04-24T09:53:40;5.10;;;1.48;;
29246;SDS011;16272;48.188;9.964;2023-04-24T09:56:10;6.22;;;1.80;;
29246;SDS011;16272;48.188;9.964;2023-04-24T09:58:38;6.25;;;1.17;;
29246;SDS011;16272;48.188;9.964;2023-04-24T10:01:04;4.83;;;1.40;;
29246;SDS011;16272;48.188;9.964;2023-04-24T10:03:30;4.85;;;1.50;;
29246;SDS011;16272;48.188;9.964;2023-04-24T10:05:59;5.20;;;1.25;;
29246;SDS011;16272;48.188;9.964;2023-04-24T10:08:34;5.05;;;1.30;;
29246;SDS011;16272;48.188;9.964;2023-04-24T10:11:00;5.90;;;1.98;;
29246;SDS011;16272;48.188;9.964;2023-04-24T10:13:26;5.50;;;1.40;;
29246;SDS011;16272;48.188;9.964;2023-04-24T10:15:52;4.72;;;1.40;;
29246;SDS011;16272;48.188;9.964;2023-04-24T10:18:19;4.68;;;1.13;;
29246;SDS011;16272;48.188;9.964;2023-04-24T10:20:46;5.25;;;1.40;;
29246;SDS011;16272;48.188;9.964;2023-04-24T10:23:12;4.90;;;1.50;;
29246;SDS011;16272;48.188;9.964;2023-04-24T10:25:37;5.67;;;1.40;;
29246;SDS011;16272;48.188;9.964;2023-04-24T10:28:03;5.33;;;1.73;;
29246;SDS011;16272;48.188;9.964;2023-04-24T10:30:33;5.65;;;1.67;;
29246;SDS011;16272;48.188;9.964;2023-04-24T10:33:03;4.97;;;1.43;;
29246;SDS011;16272;48.188;9.964;2023-04-24T10:35:37;4.15;;;1.35;;
29246;SDS011;16272;48.188;9.964;2023-04-24T10:38:06;5.65;;;1.40;;
29246;SDS011;16272;48.188;9.964;2023-04-24T10:40:35;5.35;;;1.33;;
29246;SDS011;16272;48.188;9.964;2023-04-24T10:43:04;5.18;;;1.70;;
29246;SDS011;16272;48.188;9.964;2023-04-24T10:45:33;6.43;;;1.80;;
29246;SDS011;16272;48.188;9.964;2023-04-24T10:48:02;5.55;;;1.23;;
29246;SDS011;16272;48.188;9.964;2023-04-24T10:50:30;4.90;;;1.50;;
29246;SDS011;16272;48.188;9.964;2023-04-24T10:53:12;6.75;;;1.55;;
29246;SDS011;16272;48.188;9.964;2023-04-24T10:55:48;6.05;;;1.70;;
29246;SDS011;16272;48.188;9.964;2023-04-24T10:58:16;6.13;;;1.65;;
29246;SDS011;16272;48.188;9.964;2023-04-24T11:00:54;6.25;;;1.80;;
29246;SDS011;16272;48.188;9.964;2023-04-24T11:03:25;5.90;;;1.80;;
29246;SDS011;16272;48.188;9.964;2023-04-24T11:06:09;6.00;;;1.58;;
29246;SDS011;16272;48.188;9.964;2023-04-24T11:08:38;6.13;;;1.90;;
29246;SDS011;16272;48.188;9.964;2023-04-24T11:11:17;5.00;;;1.60;;
29246;SDS011;16272;48.188;9.964;2023-04-24T11:18:52;5.13;;;1.15;;
29246;SDS011;16272;48.188;9.964;2023-04-24T11:21:25;6.55;;;1.92;;
29246;SDS011;16272;48.188;9.964;2023-04-24T11:23:51;5.70;;;1.55;;
29246;SDS011;16272;48.188;9.964;2023-04-24T11:26:21;4.77;;;1.40;;
29246;SDS011;16272;48.188;9.964;2023-04-24T11:28:49;6.07;;;1.50;;
29246;SDS011;16272;48.188;9.964;2023-04-24T11:34:09;7.10;;;1.47;;
29246;SDS011;16272;48.188;9.964;2023-04-24T11:36:37;5.30;;;1.30;;
29246;SDS011;16272;48.188;9.964;2023-04-24T11:39:03;6.78;;;1.67;;
29246;SDS011;16272;48.188;9.964;2023-04-24T11:41:29;5.73;;;1.60;;
29246;SDS011;16272;48.188;9.964;2023-04-24T11:43:55;4.80;;;1.60;;
29246;SDS011;16272;48.188;9.964;2023-04-24T11:46:21;6.00;;;1.60;;
29246;SDS011;16272;48.188;9.964;2023-04-24T11:48:47;5.43;;;1.73;;
29246;SDS011;16272;48.188;9.964;2023-04-24T11:51:13;5.67;;;1.47;;
29246;SDS011;16272;48.188;9.964;2023-04-24T11:53:38;5.13;;;1.40;;
29246;SDS011;16272;48.188;9.964;2023-04-24T11:56:04;4.70;;;1.17;;
29246;SDS011;16272;48.188;9.964;2023-04-24T11:58:34;6.30;;;1.50;;
29246;SDS011;16272;48.188;9.964;2023-04-24T12:01:04;6.25;;;1.65;;
29246;SDS011;16272;48.188;9.964;2023-04-24T12:03:30;5.38;;;1.10;;
29246;SDS011;16272;48.188;9.964;2023-04-24T12:06:05;5.15;;;1.35;;
29246;SDS011;16272;48.188;9.964;2023-04-24T12:08:34;4.93;;;1.40;;
29246;SDS011;16272;48.188;9.964;2023-04-24T12:11:00;5.60;;;1.47;;
29246;SDS011;16272;48.188;9.964;2023-04-24T12:13:29;6.57;;;1.83;;
29246;SDS011;16272;48.188;9.964;2023-04-24T12:15:56;5.70;;;1.80;;
29246;SDS011;16272;48.188;9.964;2023-04-24T12:18:22;5.93;;;1.80;;
29246;SDS011;16272;48.188;9.964;2023-04-24T12:20:48;5.85;;;1.70;;
29246;SDS011;16272;48.188;9.964;2023-04-24T12:23:15;4.87;;;1.40;;
29246;SDS011;16272;48.188;9.964;2023-04-24T12:25:40;6.20;;;1.60;;
29246;SDS011;16272;48.188;9.964;2023-04-24T12:30:39;5.88;;;1.63;;
29246;SDS011;16272;48.188;9.964;2023-04-24T12:33:06;5.20;;;1.73;;
29246;SDS011;16272;48.188;9.964;2023-04-24T12:35:32;5.95;;;1.67;;
29246;SDS011;16272;48.188;9.964;2023-04-24T12:38:05;5.20;;;1.67;;
29246;SDS011;16272;48.188;9.964;2023-04-24T12:40:34;5.68;;;1.60;;
29246;SDS011;16272;48.188;9.964;2023-04-24T12:43:00;5.07;;;1.70;;
29246;SDS011;16272;48.188;9.964;2023-04-24T12:45:26;5.57;;;1.65;;
29246;SDS011;16272;48.188;9.964;2023-04-24T12:47:53;5.45;;;1.70;;
29246;SDS011;16272;48.188;9.964;2023-04-24T12:50:18;5.80;;;1.60;;
29246;SDS011;16272;48.188;9.964;2023-04-24T12:52:44;5.93;;;1.90;;
29246;SDS011;16272;48.188;9.964;2023-04-24T12:55:10;6.30;;;1.70;;
29246;SDS011;16272;48.188;9.964;2023-04-24T12:57:37;5.75;;;1.90;;
29246;SDS011;16272;48.188;9.964;2023-04-24T13:00:03;6.35;;;2.00;;
29246;SDS011;16272;48.188;9.964;2023-04-24T13:02:31;5.43;;;1.70;;
29246;SDS011;16272;48.188;9.964;2023-04-24T13:04:57;6.67;;;2.10;;
29246;SDS011;16272;48.188;9.964;2023-04-24T13:07:23;6.65;;;2.13;;
29246;SDS011;16272;48.188;9.964;2023-04-24T13:09:50;6.30;;;1.90;;
29246;SDS011;16272;48.188;9.964;2023-04-24T13:12:16;5.95;;;1.67;;
29246;SDS011;16272;48.188;9.964;2023-04-24T13:14:41;7.10;;;2.40;;
29246;SDS011;16272;48.188;9.964;2023-04-24T13:17:07;6.13;;;1.70;;
29246;SDS011;16272;48.188;9.964;2023-04-24T13:19:39;6.40;;;1.97;;
29246;SDS011;16272;48.188;9.964;2023-04-24T13:22:06;5.70;;;1.60;;
29246;SDS011;16272;48.188;9.964;2023-04-24T13:24:32;6.80;;;2.17;;
29246;SDS011;16272;48.188;9.964;2023-04-24T13:26:58;6.47;;;2.03;;
29246;SDS011;16272;48.188;9.964;2023-04-24T13:29:25;7.13;;;1.80;;
29246;SDS011;16272;48.188;9.964;2023-04-24T13:31:51;5.63;;;1.48;;
29246;SDS011;16272;48.188;9.964;2023-04-24T13:34:16;5.27;;;1.40;;
29246;SDS011;16272;48.188;9.964;2023-04-24T13:36:42;5.05;;;1.33;;
29246;SDS011;16272;48.188;9.964;2023-04-24T13:39:08;4.90;;;1.20;;
29246;SDS011;16272;48.188;9.964;2023-04-24T13:41:33;5.57;;;1.37;;
29246;SDS011;16272;48.188;9.964;2023-04-24T13:43:59;4.72;;;1.25;;
29246;SDS011;16272;48.188;9.964;2023-04-24T13:46:24;5.20;;;1.20;;
29246;SDS011;16272;48.188;9.964;2023-04-24T13:48:50;5.20;;;1.17;;
29246;SDS011;16272;48.188;9.964;2023-04-24T13:51:16;4.60;;;1.50;;
29246;SDS011;16272;48.188;9.964;2023-04-24T13:53:41;6.13;;;1.20;;
29246;SDS011;16272;48.188;9.964;2023-04-24T13:56:06;5.43;;;1.73;;
29246;SDS011;16272;48.188;9.964;2023-04-24T13:58:32;4.55;;;1.40;;
29246;SDS011;16272;48.188;9.964;2023-04-24T14:00:58;5.17;;;1.30;;
29246;SDS011;16272;48.188;9.964;2023-04-24T14:03:23;4.37;;;1.10;;
29246;SDS011;16272;48.188;9.964;2023-04-24T14:05:48;5.10;;;1.33;;
29246;SDS011;16272;48.188;9.964;2023-04-24T14:08:14;4.33;;;1.40;;
29246;SDS011;16272;48.188;9.964;2023-04-24T14:10:39;5.47;;;1.60;;
29246;SDS011;16272;48.188;9.964;2023-04-24T14:13:04;4.70;;;1.10;;
29246;SDS011;16272;48.188;9.964;2023-04-24T14:15:30;4.75;;;1.38;;
29246;SDS011;16272;48.188;9.964;2023-04-24T14:17:56;4.50;;;1.20;;
29246;SDS011;16272;48.188;9.964;2023-04-24T14:20:21;5.30;;;1.50;;
29246;SDS011;16272;48.188;9.964;2023-04-24T14:22:47;4.40;;;1.20;;
29246;SDS011;16272;48.188;9.964;2023-04-24T14:25:12;5.85;;;1.50;;
29246;SDS011;16272;48.188;9.964;2023-04-24T14:27:37;4.90;;;1.10;;
29246;SDS011;16272;48.188;9.964;2023-04-24T14:30:03;4.27;;;1.13;;
29246;SDS011;16272;48.188;9.964;2023-04-24T14:32:29;3.92;;;1.00;;
29246;SDS011;16272;48.188;9.964;2023-04-24T14:34:54;4.80;;;1.20;;
29246;SDS011;16272;48.188;9.964;2023-04-24T14:37:20;4.13;;;1.10;;
29246;SDS011;16272;48.188;9.964;2023-04-24T14:39:45;3.60;;;1.00;;
29246;SDS011;16272;48.188;9.964;2023-04-24T14:42:11;4.50;;;1.10;;
29246;SDS011;16272;48.188;9.964;2023-04-24T14:44:36;4.07;;;1.00;;
29246;SDS011;16272;48.188;9.964;2023-04-24T14:47:01;4.73;;;0.90;;
29246;SDS011;16272;48.188;9.964;2023-04-24T14:49:27;4.33;;;1.10;;
29246;SDS011;16272;48.188;9.964;2023-04-24T14:51:53;3.83;;;1.07;;
29246;SDS011;16272;48.188;9.964;2023-04-24T14:54:19;4.90;;;1.20;;